sensor_id;sensor_type;location;lat;lon;timestamp;P1;durP1;ratioP1;P2;durP2;ratioP2
2928;SDS011;1474;51.460;7.150;2024-02-16T00:01:02;1.48;;;0.90;;
2928;SDS011;1474;51.460;7.150;2024-02-16T00:03:46;1.77;;;1.00;;
2928;SDS011;1474;51.460;7.150;2024-02-16T00:06:31;3.08;;;0.90;;
2928;SDS011;1474;51.460;7.150;2024-02-16T00:09:17;1.58;;;0.95;;
2928;SDS011;1474;51.460;7.150;2024-02-16T00:12:02;1.75;;;1.00;;
2928;SDS011;1474;51.460;7.150;2024-02-16T00:14:47;0.68;;;0.68;;
2928;SDS011;1474;51.460;7.150;2024-02-16T00:17:31;3.75;;;1.10;;
2928;SDS011;1474;51.460;7.150;2024-02-16T00:20:17;1.50;;;0.73;;
2928;SDS011;1474;51.460;7.150;2024-02-16T00:23:04;1.23;;;0.80;;
2928;SDS011;1474;51.460;7.150;2024-02-16T00:25:50;1.50;;;1.00;;
2928;SDS011;1474;51.460;7.150;2024-02-16T00:28:35;2.17;;;0.88;;
2928;SDS011;1474;51.460;7.150;2024-02-16T00:31:20;2.58;;;1.00;;
2928;SDS011;1474;51.460;7.150;2024-02-16T00:34:04;3.15;;;0.95;;
2928;SDS011;1474;51.460;7.150;2024-02-16T00:36:49;2.40;;;0.93;;
2928;SDS011;1474;51.460;7.150;2024-02-16T00:39:33;1.48;;;1.00;;
2928;SDS011;1474;51.460;7.150;2024-02-16T00:42:18;1.17;;;0.95;;
2928;SDS011;1474;51.460;7.150;2024-02-16T00:45:03;1.10;;;0.85;;
2928;SDS011;1474;51.460;7.150;2024-02-16T00:47:48;2.00;;;0.80;;
2928;SDS011;1474;51.460;7.150;2024-02-16T00:50:33;1.20;;;0.95;;
2928;SDS011;1474;51.460;7.150;2024-02-16T00:53:18;3.95;;;1.15;;
2928;SDS011;1474;51.460;7.150;2024-02-16T00:56:03;2.47;;;1.13;;
2928;SDS011;1474;51.460;7.150;2024-02-16T00:58:48;2.20;;;1.13;;
2928;SDS011;1474;51.460;7.150;2024-02-16T01:01:33;1.63;;;0.80;;
2928;SDS011;1474;51.460;7.150;2024-02-16T01:04:19;1.65;;;1.02;;
2928;SDS011;1474;51.460;7.150;2024-02-16T01:07:03;1.13;;;0.82;;
2928;SDS011;1474;51.460;7.150;2024-02-16T01:09:48;0.98;;;0.88;;
2928;SDS011;1474;51.460;7.150;2024-02-16T01:12:32;1.15;;;0.73;;
2928;SDS011;1474;51.460;7.150;2024-02-16T01:15:17;2.30;;;0.90;;
2928;SDS011;1474;51.460;7.150;2024-02-16T01:18:02;3.72;;;1.08;;
2928;SDS011;1474;51.460;7.150;2024-02-16T01:20:46;2.40;;;1.00;;
2928;SDS011;1474;51.460;7.150;2024-02-16T01:23:31;3.63;;;0.90;;
2928;SDS011;1474;51.460;7.150;2024-02-16T01:26:16;1.45;;;1.02;;
2928;SDS011;1474;51.460;7.150;2024-02-16T01:29:00;3.20;;;1.88;;
2928;SDS011;1474;51.460;7.150;2024-02-16T01:31:45;1.48;;;0.70;;
2928;SDS011;1474;51.460;7.150;2024-02-16T01:34:30;1.65;;;1.08;;
2928;SDS011;1474;51.460;7.150;2024-02-16T01:37:15;2.28;;;0.80;;
2928;SDS011;1474;51.460;7.150;2024-02-16T01:40:01;2.08;;;1.20;;
2928;SDS011;1474;51.460;7.150;2024-02-16T01:42:47;1.92;;;0.93;;
2928;SDS011;1474;51.460;7.150;2024-02-16T01:45:32;2.20;;;1.60;;
2928;SDS011;1474;51.460;7.150;2024-02-16T01:48:16;1.42;;;1.10;;
2928;SDS011;1474;51.460;7.150;2024-02-16T01:51:01;1.50;;;0.95;;
2928;SDS011;1474;51.460;7.150;2024-02-16T01:53:45;0.82;;;0.80;;
2928;SDS011;1474;51.460;7.150;2024-02-16T01:56:30;2.40;;;0.98;;
2928;SDS011;1474;51.460;7.150;2024-02-16T01:59:15;1.17;;;0.98;;
2928;SDS011;1474;51.460;7.150;2024-02-16T02:02:00;4.15;;;1.30;;
2928;SDS011;1474;51.460;7.150;2024-02-16T02:04:45;3.83;;;0.98;;
2928;SDS011;1474;51.460;7.150;2024-02-16T02:07:29;0.70;;;0.60;;
2928;SDS011;1474;51.460;7.150;2024-02-16T02:10:14;1.60;;;0.95;;
2928;SDS011;1474;51.460;7.150;2024-02-16T02:12:59;1.75;;;1.00;;
2928;SDS011;1474;51.460;7.150;2024-02-16T02:15:43;1.83;;;0.80;;
2928;SDS011;1474;51.460;7.150;2024-02-16T02:18:28;1.30;;;1.15;;
2928;SDS011;1474;51.460;7.150;2024-02-16T02:21:12;1.88;;;0.90;;
2928;SDS011;1474;51.460;7.150;2024-02-16T02:23:58;1.75;;;0.90;;
2928;SDS011;1474;51.460;7.150;2024-02-16T02:26:42;1.63;;;1.00;;
2928;SDS011;1474;51.460;7.150;2024-02-16T02:29:27;1.08;;;0.90;;
2928;SDS011;1474;51.460;7.150;2024-02-16T02:32:12;1.63;;;1.48;;
2928;SDS011;1474;51.460;7.150;2024-02-16T02:34:56;2.75;;;1.08;;
2928;SDS011;1474;51.460;7.150;2024-02-16T02:37:41;1.13;;;0.90;;
2928;SDS011;1474;51.460;7.150;2024-02-16T02:40:25;2.15;;;1.00;;
2928;SDS011;1474;51.460;7.150;2024-02-16T02:43:10;1.17;;;0.90;;
2928;SDS011;1474;51.460;7.150;2024-02-16T02:45:55;3.05;;;1.33;;
2928;SDS011;1474;51.460;7.150;2024-02-16T02:48:39;1.98;;;0.98;;
2928;SDS011;1474;51.460;7.150;2024-02-16T02:51:24;1.15;;;0.98;;
2928;SDS011;1474;51.460;7.150;2024-02-16T02:54:10;2.00;;;0.82;;
2928;SDS011;1474;51.460;7.150;2024-02-16T02:56:54;1.80;;;0.82;;
2928;SDS011;1474;51.460;7.150;2024-02-16T02:59:39;2.00;;;0.98;;
2928;SDS011;1474;51.460;7.150;2024-02-16T03:02:24;1.98;;;1.33;;
2928;SDS011;1474;51.460;7.150;2024-02-16T03:05:10;1.27;;;0.77;;
2928;SDS011;1474;51.460;7.150;2024-02-16T03:07:55;1.45;;;0.98;;
2928;SDS011;1474;51.460;7.150;2024-02-16T03:10:40;2.40;;;1.10;;
2928;SDS011;1474;51.460;7.150;2024-02-16T03:13:24;1.55;;;1.00;;
2928;SDS011;1474;51.460;7.150;2024-02-16T03:16:09;1.73;;;1.02;;
2928;SDS011;1474;51.460;7.150;2024-02-16T03:18:53;1.80;;;1.10;;
2928;SDS011;1474;51.460;7.150;2024-02-16T03:21:38;2.83;;;1.00;;
2928;SDS011;1474;51.460;7.150;2024-02-16T03:24:23;1.88;;;0.98;;
2928;SDS011;1474;51.460;7.150;2024-02-16T03:27:07;1.20;;;0.77;;
2928;SDS011;1474;51.460;7.150;2024-02-16T03:29:52;3.17;;;1.15;;
2928;SDS011;1474;51.460;7.150;2024-02-16T03:32:36;1.73;;;1.15;;
2928;SDS011;1474;51.460;7.150;2024-02-16T03:35:21;4.03;;;1.17;;
2928;SDS011;1474;51.460;7.150;2024-02-16T03:38:06;1.95;;;0.85;;
2928;SDS011;1474;51.460;7.150;2024-02-16T03:40:51;3.22;;;1.10;;
2928;SDS011;1474;51.460;7.150;2024-02-16T03:43:35;1.38;;;0.90;;
2928;SDS011;1474;51.460;7.150;2024-02-16T03:46:20;1.58;;;1.00;;
2928;SDS011;1474;51.460;7.150;2024-02-16T03:49:04;1.98;;;0.95;;
2928;SDS011;1474;51.460;7.150;2024-02-16T03:51:49;4.65;;;1.38;;
2928;SDS011;1474;51.460;7.150;2024-02-16T03:54:33;1.63;;;0.85;;
2928;SDS011;1474;51.460;7.150;2024-02-16T03:57:18;3.05;;;1.00;;
2928;SDS011;1474;51.460;7.150;2024-02-16T04:00:02;2.15;;;0.88;;
2928;SDS011;1474;51.460;7.150;2024-02-16T04:02:49;2.30;;;1.08;;
2928;SDS011;1474;51.460;7.150;2024-02-16T04:05:35;2.88;;;1.17;;
2928;SDS011;1474;51.460;7.150;2024-02-16T04:08:19;2.00;;;1.13;;
2928;SDS011;1474;51.460;7.150;2024-02-16T04:11:05;2.95;;;1.13;;
2928;SDS011;1474;51.460;7.150;2024-02-16T04:13:50;2.20;;;1.08;;
2928;SDS011;1474;51.460;7.150;2024-02-16T04:16:34;1.80;;;1.20;;
2928;SDS011;1474;51.460;7.150;2024-02-16T04:19:19;2.55;;;1.10;;
2928;SDS011;1474;51.460;7.150;2024-02-16T04:22:04;2.03;;;1.00;;
2928;SDS011;1474;51.460;7.150;2024-02-16T04:24:48;1.20;;;0.98;;
2928;SDS011;1474;51.460;7.150;2024-02-16T04:27:33;2.45;;;1.55;;
2928;SDS011;1474;51.460;7.150;2024-02-16T04:30:18;1.95;;;1.50;;
2928;SDS011;1474;51.460;7.150;2024-02-16T04:33:03;1.30;;;0.80;;
2928;SDS011;1474;51.460;7.150;2024-02-16T04:35:48;2.88;;;1.02;;
2928;SDS011;1474;51.460;7.150;2024-02-16T04:38:34;2.70;;;1.05;;
2928;SDS011;1474;51.460;7.150;2024-02-16T04:41:19;2.67;;;1.13;;
2928;SDS011;1474;51.460;7.150;2024-02-16T04:44:04;1.13;;;0.98;;
2928;SDS011;1474;51.460;7.150;2024-02-16T04:46:50;2.78;;;1.05;;
2928;SDS011;1474;51.460;7.150;2024-02-16T04:49:35;3.03;;;0.90;;
2928;SDS011;1474;51.460;7.150;2024-02-16T04:52:20;1.92;;;0.90;;
2928;SDS011;1474;51.460;7.150;2024-02-16T04:55:06;2.13;;;1.17;;
2928;SDS011;1474;51.460;7.150;2024-02-16T04:57:51;1.48;;;1.23;;
2928;SDS011;1474;51.460;7.150;2024-02-16T05:00:39;1.60;;;1.15;;
2928;SDS011;1474;51.460;7.150;2024-02-16T05:03:23;2.05;;;1.08;;
2928;SDS011;1474;51.460;7.150;2024-02-16T05:06:08;1.90;;;0.90;;
2928;SDS011;1474;51.460;7.150;2024-02-16T05:08:52;0.70;;;0.70;;
2928;SDS011;1474;51.460;7.150;2024-02-16T05:11:37;2.47;;;1.08;;
2928;SDS011;1474;51.460;7.150;2024-02-16T05:14:21;1.58;;;0.98;;
2928;SDS011;1474;51.460;7.150;2024-02-16T05:17:07;1.05;;;0.82;;
2928;SDS011;1474;51.460;7.150;2024-02-16T05:19:52;1.45;;;1.00;;
2928;SDS011;1474;51.460;7.150;2024-02-16T05:22:37;2.70;;;1.42;;
2928;SDS011;1474;51.460;7.150;2024-02-16T05:25:22;1.20;;;1.00;;
2928;SDS011;1474;51.460;7.150;2024-02-16T05:28:07;1.95;;;1.42;;
2928;SDS011;1474;51.460;7.150;2024-02-16T05:30:51;0.80;;;0.60;;
2928;SDS011;1474;51.460;7.150;2024-02-16T05:33:36;3.03;;;1.30;;
2928;SDS011;1474;51.460;7.150;2024-02-16T05:36:21;2.53;;;1.20;;
2928;SDS011;1474;51.460;7.150;2024-02-16T05:39:08;1.92;;;1.20;;
2928;SDS011;1474;51.460;7.150;2024-02-16T05:42:03;1.52;;;0.93;;
2928;SDS011;1474;51.460;7.150;2024-02-16T05:44:48;2.70;;;0.95;;
2928;SDS011;1474;51.460;7.150;2024-02-16T05:47:32;2.42;;;1.20;;
2928;SDS011;1474;51.460;7.150;2024-02-16T05:50:17;3.88;;;1.10;;
2928;SDS011;1474;51.460;7.150;2024-02-16T05:53:01;1.55;;;1.00;;
2928;SDS011;1474;51.460;7.150;2024-02-16T05:55:46;2.50;;;1.33;;
2928;SDS011;1474;51.460;7.150;2024-02-16T05:58:31;2.45;;;1.20;;
2928;SDS011;1474;51.460;7.150;2024-02-16T06:01:17;2.13;;;1.08;;
2928;SDS011;1474;51.460;7.150;2024-02-16T06:03:43;3.13;;;1.30;;
2928;SDS011;1474;51.460;7.150;2024-02-16T06:06:09;2.17;;;1.13;;
2928;SDS011;1474;51.460;7.150;2024-02-16T06:08:35;1.20;;;1.10;;
2928;SDS011;1474;51.460;7.150;2024-02-16T06:11:01;1.50;;;1.27;;
2928;SDS011;1474;51.460;7.150;2024-02-16T06:13:29;2.90;;;1.50;;
2928;SDS011;1474;51.460;7.150;2024-02-16T06:15:55;2.45;;;1.00;;
2928;SDS011;1474;51.460;7.150;2024-02-16T06:18:21;3.13;;;1.30;;
2928;SDS011;1474;51.460;7.150;2024-02-16T06:20:47;1.55;;;1.08;;
2928;SDS011;1474;51.460;7.150;2024-02-16T06:23:13;2.40;;;1.38;;
2928;SDS011;1474;51.460;7.150;2024-02-16T06:25:42;1.60;;;1.30;;
2928;SDS011;1474;51.460;7.150;2024-02-16T06:28:08;2.05;;;1.20;;
2928;SDS011;1474;51.460;7.150;2024-02-16T06:30:33;2.05;;;1.17;;
2928;SDS011;1474;51.460;7.150;2024-02-16T06:32:59;2.92;;;1.83;;
2928;SDS011;1474;51.460;7.150;2024-02-16T06:35:25;2.05;;;1.33;;
2928;SDS011;1474;51.460;7.150;2024-02-16T06:37:51;1.58;;;1.08;;
2928;SDS011;1474;51.460;7.150;2024-02-16T06:40:17;1.88;;;1.27;;
2928;SDS011;1474;51.460;7.150;2024-02-16T06:42:42;1.90;;;1.20;;
2928;SDS011;1474;51.460;7.150;2024-02-16T06:45:08;2.10;;;1.40;;
2928;SDS011;1474;51.460;7.150;2024-02-16T06:47:34;3.85;;;1.85;;
2928;SDS011;1474;51.460;7.150;2024-02-16T06:49:59;2.33;;;1.27;;
2928;SDS011;1474;51.460;7.150;2024-02-16T06:52:25;1.52;;;1.20;;
2928;SDS011;1474;51.460;7.150;2024-02-16T06:54:51;3.78;;;1.45;;
2928;SDS011;1474;51.460;7.150;2024-02-16T06:57:18;2.58;;;1.35;;
2928;SDS011;1474;51.460;7.150;2024-02-16T06:59:45;2.60;;;1.27;;
2928;SDS011;1474;51.460;7.150;2024-02-16T07:02:10;3.03;;;1.33;;
2928;SDS011;1474;51.460;7.150;2024-02-16T07:04:36;2.47;;;1.25;;
2928;SDS011;1474;51.460;7.150;2024-02-16T07:07:04;2.30;;;1.23;;
2928;SDS011;1474;51.460;7.150;2024-02-16T07:09:31;3.58;;;1.40;;
2928;SDS011;1474;51.460;7.150;2024-02-16T07:11:57;1.77;;;1.10;;
2928;SDS011;1474;51.460;7.150;2024-02-16T07:14:23;2.08;;;1.08;;
2928;SDS011;1474;51.460;7.150;2024-02-16T07:16:49;2.28;;;1.45;;
2928;SDS011;1474;51.460;7.150;2024-02-16T07:19:15;3.03;;;1.15;;
2928;SDS011;1474;51.460;7.150;2024-02-16T07:21:40;3.58;;;1.38;;
2928;SDS011;1474;51.460;7.150;2024-02-16T07:24:06;3.20;;;1.25;;
2928;SDS011;1474;51.460;7.150;2024-02-16T07:26:32;1.50;;;1.00;;
2928;SDS011;1474;51.460;7.150;2024-02-16T07:28:58;1.90;;;1.30;;
2928;SDS011;1474;51.460;7.150;2024-02-16T07:31:24;2.17;;;1.50;;
2928;SDS011;1474;51.460;7.150;2024-02-16T07:33:49;2.47;;;1.27;;
2928;SDS011;1474;51.460;7.150;2024-02-16T07:36:15;1.45;;;1.08;;
2928;SDS011;1474;51.460;7.150;2024-02-16T07:38:42;2.03;;;1.55;;
2928;SDS011;1474;51.460;7.150;2024-02-16T07:41:09;3.08;;;1.25;;
2928;SDS011;1474;51.460;7.150;2024-02-16T07:43:34;1.35;;;1.25;;
2928;SDS011;1474;51.460;7.150;2024-02-16T07:46:00;2.83;;;1.35;;
2928;SDS011;1474;51.460;7.150;2024-02-16T07:48:26;1.67;;;1.40;;
2928;SDS011;1474;51.460;7.150;2024-02-16T07:50:51;2.13;;;1.05;;
2928;SDS011;1474;51.460;7.150;2024-02-16T07:53:17;2.25;;;1.17;;
2928;SDS011;1474;51.460;7.150;2024-02-16T07:55:43;1.33;;;1.20;;
2928;SDS011;1474;51.460;7.150;2024-02-16T07:58:08;2.97;;;1.65;;
2928;SDS011;1474;51.460;7.150;2024-02-16T08:00:34;3.65;;;1.40;;
2928;SDS011;1474;51.460;7.150;2024-02-16T08:03:00;1.88;;;1.50;;
2928;SDS011;1474;51.460;7.150;2024-02-16T08:05:25;3.25;;;1.38;;
2928;SDS011;1474;51.460;7.150;2024-02-16T08:07:52;1.50;;;1.40;;
2928;SDS011;1474;51.460;7.150;2024-02-16T08:10:19;2.72;;;1.33;;
2928;SDS011;1474;51.460;7.150;2024-02-16T08:12:48;2.77;;;1.37;;
2928;SDS011;1474;51.460;7.150;2024-02-16T08:15:14;3.58;;;1.17;;
2928;SDS011;1474;51.460;7.150;2024-02-16T08:17:39;2.35;;;1.48;;
2928;SDS011;1474;51.460;7.150;2024-02-16T08:20:06;1.90;;;1.30;;
2928;SDS011;1474;51.460;7.150;2024-02-16T08:22:32;2.17;;;1.38;;
2928;SDS011;1474;51.460;7.150;2024-02-16T08:24:59;2.67;;;1.40;;
2928;SDS011;1474;51.460;7.150;2024-02-16T08:27:24;2.65;;;1.40;;
2928;SDS011;1474;51.460;7.150;2024-02-16T08:29:50;2.28;;;1.50;;
2928;SDS011;1474;51.460;7.150;2024-02-16T08:32:18;3.08;;;1.20;;
2928;SDS011;1474;51.460;7.150;2024-02-16T08:34:46;2.38;;;1.58;;
2928;SDS011;1474;51.460;7.150;2024-02-16T08:37:13;2.95;;;1.50;;
2928;SDS011;1474;51.460;7.150;2024-02-16T08:39:39;1.67;;;1.20;;
2928;SDS011;1474;51.460;7.150;2024-02-16T08:42:06;3.65;;;1.60;;
2928;SDS011;1474;51.460;7.150;2024-02-16T08:44:34;2.50;;;1.40;;
2928;SDS011;1474;51.460;7.150;2024-02-16T08:46:59;2.70;;;1.45;;
2928;SDS011;1474;51.460;7.150;2024-02-16T08:49:25;2.20;;;1.38;;
2928;SDS011;1474;51.460;7.150;2024-02-16T08:51:51;3.92;;;1.63;;
2928;SDS011;1474;51.460;7.150;2024-02-16T08:54:16;1.65;;;1.42;;
2928;SDS011;1474;51.460;7.150;2024-02-16T08:56:45;1.73;;;1.48;;
2928;SDS011;1474;51.460;7.150;2024-02-16T08:59:11;3.95;;;1.48;;
2928;SDS011;1474;51.460;7.150;2024-02-16T09:01:37;4.22;;;1.27;;
2928;SDS011;1474;51.460;7.150;2024-02-16T09:04:04;3.70;;;1.75;;
2928;SDS011;1474;51.460;7.150;2024-02-16T09:06:30;3.38;;;1.85;;
2928;SDS011;1474;51.460;7.150;2024-02-16T09:08:56;4.68;;;1.73;;
2928;SDS011;1474;51.460;7.150;2024-02-16T09:11:22;1.90;;;1.33;;
2928;SDS011;1474;51.460;7.150;2024-02-16T09:13:48;2.20;;;1.27;;
2928;SDS011;1474;51.460;7.150;2024-02-16T09:16:14;3.53;;;1.75;;
2928;SDS011;1474;51.460;7.150;2024-02-16T09:18:40;2.60;;;1.60;;
2928;SDS011;1474;51.460;7.150;2024-02-16T09:21:06;3.53;;;1.30;;
2928;SDS011;1474;51.460;7.150;2024-02-16T09:23:32;1.38;;;1.25;;
2928;SDS011;1474;51.460;7.150;2024-02-16T09:25:58;3.83;;;1.10;;
2928;SDS011;1474;51.460;7.150;2024-02-16T09:28:25;2.17;;;1.58;;
2928;SDS011;1474;51.460;7.150;2024-02-16T09:30:51;4.18;;;1.60;;
2928;SDS011;1474;51.460;7.150;2024-02-16T09:33:17;2.67;;;1.40;;
2928;SDS011;1474;51.460;7.150;2024-02-16T09:35:42;3.00;;;1.45;;
2928;SDS011;1474;51.460;7.150;2024-02-16T09:38:08;3.08;;;2.00;;
2928;SDS011;1474;51.460;7.150;2024-02-16T09:40:35;2.42;;;1.60;;
2928;SDS011;1474;51.460;7.150;2024-02-16T09:43:01;3.30;;;1.20;;
2928;SDS011;1474;51.460;7.150;2024-02-16T09:45:28;2.05;;;1.40;;
2928;SDS011;1474;51.460;7.150;2024-02-16T09:47:54;5.32;;;1.63;;
2928;SDS011;1474;51.460;7.150;2024-02-16T09:50:22;2.30;;;1.65;;
2928;SDS011;1474;51.460;7.150;2024-02-16T09:52:49;3.85;;;1.38;;
2928;SDS011;1474;51.460;7.150;2024-02-16T09:55:16;4.18;;;1.63;;
2928;SDS011;1474;51.460;7.150;2024-02-16T09:57:42;3.05;;;1.25;;
2928;SDS011;1474;51.460;7.150;2024-02-16T10:00:09;2.78;;;1.58;;
2928;SDS011;1474;51.460;7.150;2024-02-16T10:02:45;3.40;;;1.58;;
2928;SDS011;1474;51.460;7.150;2024-02-16T10:05:15;4.40;;;1.48;;
2928;SDS011;1474;51.460;7.150;2024-02-16T10:07:47;2.95;;;1.35;;
2928;SDS011;1474;51.460;7.150;2024-02-16T10:10:19;2.45;;;1.60;;
2928;SDS011;1474;51.460;7.150;2024-02-16T10:12:46;3.88;;;1.80;;
2928;SDS011;1474;51.460;7.150;2024-02-16T10:15:11;4.28;;;1.58;;
2928;SDS011;1474;51.460;7.150;2024-02-16T10:17:43;4.13;;;1.48;;
2928;SDS011;1474;51.460;7.150;2024-02-16T10:20:09;2.88;;;1.83;;
2928;SDS011;1474;51.460;7.150;2024-02-16T10:22:36;2.90;;;1.83;;
2928;SDS011;1474;51.460;7.150;2024-02-16T10:25:08;2.80;;;1.40;;
2928;SDS011;1474;51.460;7.150;2024-02-16T10:27:38;3.08;;;1.77;;
2928;SDS011;1474;51.460;7.150;2024-02-16T10:30:05;4.60;;;2.35;;
2928;SDS011;1474;51.460;7.150;2024-02-16T10:32:37;3.78;;;1.90;;
2928;SDS011;1474;51.460;7.150;2024-02-16T10:35:04;3.50;;;1.75;;
2928;SDS011;1474;51.460;7.150;2024-02-16T10:37:33;3.70;;;2.38;;
2928;SDS011;1474;51.460;7.150;2024-02-16T10:39:59;2.15;;;1.48;;
2928;SDS011;1474;51.460;7.150;2024-02-16T10:42:27;2.30;;;1.52;;
2928;SDS011;1474;51.460;7.150;2024-02-16T10:44:54;2.55;;;1.60;;
2928;SDS011;1474;51.460;7.150;2024-02-16T10:47:20;3.63;;;2.05;;
2928;SDS011;1474;51.460;7.150;2024-02-16T10:49:46;3.17;;;1.70;;
2928;SDS011;1474;51.460;7.150;2024-02-16T10:52:11;2.92;;;1.55;;
2928;SDS011;1474;51.460;7.150;2024-02-16T10:54:39;4.03;;;2.00;;
2928;SDS011;1474;51.460;7.150;2024-02-16T10:57:07;3.03;;;1.95;;
2928;SDS011;1474;51.460;7.150;2024-02-16T10:59:40;2.90;;;1.80;;
2928;SDS011;1474;51.460;7.150;2024-02-16T11:02:10;6.57;;;1.60;;
2928;SDS011;1474;51.460;7.150;2024-02-16T11:04:37;2.33;;;1.60;;
2928;SDS011;1474;51.460;7.150;2024-02-16T11:07:10;4.75;;;1.95;;
2928;SDS011;1474;51.460;7.150;2024-02-16T11:09:45;2.67;;;1.60;;
2928;SDS011;1474;51.460;7.150;2024-02-16T11:12:13;4.00;;;1.80;;
2928;SDS011;1474;51.460;7.150;2024-02-16T11:14:42;3.95;;;2.15;;
2928;SDS011;1474;51.460;7.150;2024-02-16T11:17:09;2.78;;;1.80;;
2928;SDS011;1474;51.460;7.150;2024-02-16T11:19:36;4.30;;;1.75;;
2928;SDS011;1474;51.460;7.150;2024-02-16T11:22:04;2.70;;;2.03;;
2928;SDS011;1474;51.460;7.150;2024-02-16T11:24:34;4.53;;;1.90;;
2928;SDS011;1474;51.460;7.150;2024-02-16T11:27:04;2.00;;;1.70;;
2928;SDS011;1474;51.460;7.150;2024-02-16T11:29:31;5.22;;;2.20;;
2928;SDS011;1474;51.460;7.150;2024-02-16T11:31:57;3.17;;;1.85;;
2928;SDS011;1474;51.460;7.150;2024-02-16T11:34:24;3.45;;;1.70;;
2928;SDS011;1474;51.460;7.150;2024-02-16T11:36:54;3.15;;;1.80;;
2928;SDS011;1474;51.460;7.150;2024-02-16T11:39:21;4.73;;;2.07;;
2928;SDS011;1474;51.460;7.150;2024-02-16T11:41:47;4.75;;;1.80;;
2928;SDS011;1474;51.460;7.150;2024-02-16T11:44:13;5.25;;;2.63;;
2928;SDS011;1474;51.460;7.150;2024-02-16T11:46:41;3.55;;;1.77;;
2928;SDS011;1474;51.460;7.150;2024-02-16T11:49:07;5.00;;;2.10;;
2928;SDS011;1474;51.460;7.150;2024-02-16T11:51:35;3.58;;;2.08;;
2928;SDS011;1474;51.460;7.150;2024-02-16T11:54:01;3.30;;;2.05;;
2928;SDS011;1474;51.460;7.150;2024-02-16T11:56:27;5.00;;;2.25;;
2928;SDS011;1474;51.460;7.150;2024-02-16T11:58:55;2.42;;;1.60;;
2928;SDS011;1474;51.460;7.150;2024-02-16T12:01:21;4.00;;;1.77;;
2928;SDS011;1474;51.460;7.150;2024-02-16T12:03:47;3.08;;;1.88;;
2928;SDS011;1474;51.460;7.150;2024-02-16T12:06:19;5.25;;;1.90;;
2928;SDS011;1474;51.460;7.150;2024-02-16T12:08:46;4.78;;;2.35;;
2928;SDS011;1474;51.460;7.150;2024-02-16T12:11:12;4.68;;;2.40;;
2928;SDS011;1474;51.460;7.150;2024-02-16T12:13:39;4.57;;;2.35;;
2928;SDS011;1474;51.460;7.150;2024-02-16T12:16:05;4.55;;;1.83;;
2928;SDS011;1474;51.460;7.150;2024-02-16T12:18:31;4.90;;;2.13;;
2928;SDS011;1474;51.460;7.150;2024-02-16T12:23:35;4.95;;;2.25;;
2928;SDS011;1474;51.460;7.150;2024-02-16T12:26:01;2.97;;;2.08;;
2928;SDS011;1474;51.460;7.150;2024-02-16T12:28:30;3.53;;;1.45;;
2928;SDS011;1474;51.460;7.150;2024-02-16T12:31:00;7.10;;;2.55;;
2928;SDS011;1474;51.460;7.150;2024-02-16T12:33:26;5.63;;;2.22;;
2928;SDS011;1474;51.460;7.150;2024-02-16T12:35:52;3.38;;;1.88;;
2928;SDS011;1474;51.460;7.150;2024-02-16T12:38:18;4.68;;;2.50;;
2928;SDS011;1474;51.460;7.150;2024-02-16T12:40:47;6.38;;;3.08;;
2928;SDS011;1474;51.460;7.150;2024-02-16T12:43:13;4.57;;;2.42;;
2928;SDS011;1474;51.460;7.150;2024-02-16T12:45:40;3.38;;;1.98;;
2928;SDS011;1474;51.460;7.150;2024-02-16T12:48:06;4.38;;;2.10;;
2928;SDS011;1474;51.460;7.150;2024-02-16T12:50:34;3.75;;;1.88;;
2928;SDS011;1474;51.460;7.150;2024-02-16T12:52:59;4.38;;;2.17;;
2928;SDS011;1474;51.460;7.150;2024-02-16T12:55:25;6.13;;;2.03;;
2928;SDS011;1474;51.460;7.150;2024-02-16T12:57:51;2.42;;;1.90;;
2928;SDS011;1474;51.460;7.150;2024-02-16T13:00:16;5.40;;;2.13;;
2928;SDS011;1474;51.460;7.150;2024-02-16T13:02:42;3.50;;;1.98;;
2928;SDS011;1474;51.460;7.150;2024-02-16T13:05:08;5.65;;;2.30;;
2928;SDS011;1474;51.460;7.150;2024-02-16T13:07:35;7.10;;;2.35;;
2928;SDS011;1474;51.460;7.150;2024-02-16T13:10:03;3.45;;;2.10;;
2928;SDS011;1474;51.460;7.150;2024-02-16T13:12:29;4.45;;;2.45;;
2928;SDS011;1474;51.460;7.150;2024-02-16T13:14:54;4.45;;;2.25;;
2928;SDS011;1474;51.460;7.150;2024-02-16T13:17:20;4.75;;;2.90;;
2928;SDS011;1474;51.460;7.150;2024-02-16T13:19:45;5.07;;;2.60;;
2928;SDS011;1474;51.460;7.150;2024-02-16T13:22:11;4.43;;;2.30;;
2928;SDS011;1474;51.460;7.150;2024-02-16T13:24:37;5.32;;;3.17;;
2928;SDS011;1474;51.460;7.150;2024-02-16T13:27:02;4.70;;;2.83;;
2928;SDS011;1474;51.460;7.150;2024-02-16T13:29:33;4.75;;;2.53;;
2928;SDS011;1474;51.460;7.150;2024-02-16T13:31:59;5.25;;;3.28;;
2928;SDS011;1474;51.460;7.150;2024-02-16T13:34:25;5.32;;;3.53;;
2928;SDS011;1474;51.460;7.150;2024-02-16T13:36:52;6.55;;;3.67;;
2928;SDS011;1474;51.460;7.150;2024-02-16T13:39:18;6.13;;;3.47;;
2928;SDS011;1474;51.460;7.150;2024-02-16T13:41:44;6.85;;;3.67;;
2928;SDS011;1474;51.460;7.150;2024-02-16T13:44:13;6.75;;;3.70;;
2928;SDS011;1474;51.460;7.150;2024-02-16T13:46:41;7.68;;;4.28;;
2928;SDS011;1474;51.460;7.150;2024-02-16T13:49:07;5.82;;;4.00;;
2928;SDS011;1474;51.460;7.150;2024-02-16T13:51:33;5.47;;;3.90;;
2928;SDS011;1474;51.460;7.150;2024-02-16T13:53:58;9.05;;;4.88;;
2928;SDS011;1474;51.460;7.150;2024-02-16T13:56:24;6.55;;;4.35;;
2928;SDS011;1474;51.460;7.150;2024-02-16T13:58:50;7.05;;;3.80;;
2928;SDS011;1474;51.460;7.150;2024-02-16T14:01:16;6.72;;;4.07;;
2928;SDS011;1474;51.460;7.150;2024-02-16T14:03:42;7.72;;;4.35;;
2928;SDS011;1474;51.460;7.150;2024-02-16T14:06:08;5.40;;;4.80;;
2928;SDS011;1474;51.460;7.150;2024-02-16T14:08:35;8.57;;;4.40;;
2928;SDS011;1474;51.460;7.150;2024-02-16T14:11:01;5.53;;;4.35;;
2928;SDS011;1474;51.460;7.150;2024-02-16T14:13:27;7.40;;;4.47;;
2928;SDS011;1474;51.460;7.150;2024-02-16T14:15:53;6.00;;;4.75;;
2928;SDS011;1474;51.460;7.150;2024-02-16T14:18:19;6.60;;;4.07;;
2928;SDS011;1474;51.460;7.150;2024-02-16T14:20:45;6.60;;;4.30;;
2928;SDS011;1474;51.460;7.150;2024-02-16T14:23:11;6.75;;;4.63;;
2928;SDS011;1474;51.460;7.150;2024-02-16T14:25:37;7.00;;;6.00;;
2928;SDS011;1474;51.460;7.150;2024-02-16T14:28:05;8.38;;;5.40;;
2928;SDS011;1474;51.460;7.150;2024-02-16T14:30:31;6.95;;;5.32;;
2928;SDS011;1474;51.460;7.150;2024-02-16T14:32:59;7.07;;;5.10;;
2928;SDS011;1474;51.460;7.150;2024-02-16T14:35:25;8.48;;;5.53;;
2928;SDS011;1474;51.460;7.150;2024-02-16T14:37:55;6.55;;;5.50;;
2928;SDS011;1474;51.460;7.150;2024-02-16T14:40:25;7.78;;;5.45;;
2928;SDS011;1474;51.460;7.150;2024-02-16T14:42:51;7.13;;;5.00;;
2928;SDS011;1474;51.460;7.150;2024-02-16T14:45:16;8.02;;;5.93;;
2928;SDS011;1474;51.460;7.150;2024-02-16T14:47:46;9.68;;;5.38;;
2928;SDS011;1474;51.460;7.150;2024-02-16T14:50:12;6.82;;;5.75;;
2928;SDS011;1474;51.460;7.150;2024-02-16T14:52:38;8.68;;;5.63;;
2928;SDS011;1474;51.460;7.150;2024-02-16T14:55:05;6.55;;;4.93;;
2928;SDS011;1474;51.460;7.150;2024-02-16T14:57:38;6.40;;;5.07;;
2928;SDS011;1474;51.460;7.150;2024-02-16T15:00:05;7.63;;;5.22;;
2928;SDS011;1474;51.460;7.150;2024-02-16T15:02:32;7.55;;;5.22;;
2928;SDS011;1474;51.460;7.150;2024-02-16T15:04:58;7.13;;;5.60;;
2928;SDS011;1474;51.460;7.150;2024-02-16T15:07:24;7.57;;;5.47;;
2928;SDS011;1474;51.460;7.150;2024-02-16T15:09:50;8.98;;;6.00;;
2928;SDS011;1474;51.460;7.150;2024-02-16T15:12:16;8.85;;;5.68;;
2928;SDS011;1474;51.460;7.150;2024-02-16T15:14:47;7.72;;;5.45;;
2928;SDS011;1474;51.460;7.150;2024-02-16T15:17:12;7.35;;;6.13;;
2928;SDS011;1474;51.460;7.150;2024-02-16T15:19:38;8.85;;;5.95;;
2928;SDS011;1474;51.460;7.150;2024-02-16T15:22:04;8.25;;;6.85;;
2928;SDS011;1474;51.460;7.150;2024-02-16T15:24:30;9.05;;;7.47;;
2928;SDS011;1474;51.460;7.150;2024-02-16T15:26:55;8.73;;;7.65;;
2928;SDS011;1474;51.460;7.150;2024-02-16T15:29:21;11.75;;;8.55;;
2928;SDS011;1474;51.460;7.150;2024-02-16T15:31:47;9.57;;;8.25;;
2928;SDS011;1474;51.460;7.150;2024-02-16T15:34:13;10.43;;;8.18;;
2928;SDS011;1474;51.460;7.150;2024-02-16T15:36:39;12.43;;;8.10;;
2928;SDS011;1474;51.460;7.150;2024-02-16T15:39:06;10.90;;;8.80;;
2928;SDS011;1474;51.460;7.150;2024-02-16T15:41:32;11.50;;;8.48;;
2928;SDS011;1474;51.460;7.150;2024-02-16T15:43:58;11.88;;;8.68;;
2928;SDS011;1474;51.460;7.150;2024-02-16T15:46:24;10.85;;;8.77;;
2928;SDS011;1474;51.460;7.150;2024-02-16T15:48:50;9.95;;;8.73;;
2928;SDS011;1474;51.460;7.150;2024-02-16T15:51:17;10.13;;;8.30;;
2928;SDS011;1474;51.460;7.150;2024-02-16T15:53:43;9.25;;;7.53;;